Time;durP1;ratioP1;P1;durP2;ratioP2;P2;SDS_P1;SDS_P2;PMS_P1;PMS_P2;Temp;Humidity;BMP_temperature;BMP_pressure;BME280_temperature;BME280_humidity;BME280_pressure;Samples;Min_cycle;Max_cycle;Signal;HPM_P1;HPM_P2
2021/12/25 00:02:24;;;;;;;0.35;0.35;;;-0.90;99.90;;;;;;4976127;28;20046;-80
2021/12/25 00:04:50;;;;;;;0.98;0.98;;;-0.90;99.90;;;;;;4975263;28;20491;-80
2021/12/25 00:07:16;;;;;;;0.22;0.22;;;-0.90;99.90;;;;;;4993055;28;20061;-80
2021/12/25 00:09:42;;;;;;;1.30;1.30;;;-0.90;99.90;;;;;;4993669;28;20188;-80
2021/12/25 00:12:08;;;;;;;0.30;0.30;;;-1.00;99.90;;;;;;4993720;28;20113;-81
2021/12/25 00:14:34;;;;;;;0.35;0.35;;;-1.00;99.90;;;;;;4993134;28;20479;-80
2021/12/25 00:17:00;;;;;;;0.30;0.30;;;-1.10;99.90;;;;;;4975787;28;20058;-79
2021/12/25 00:19:26;;;;;;;0.30;0.30;;;-1.10;99.90;;;;;;4993477;28;20046;-80
2021/12/25 00:21:52;;;;;;;0.30;0.30;;;-1.10;99.90;;;;;;4992607;28;20048;-82
2021/12/25 00:24:18;;;;;;;0.30;0.30;;;-1.20;99.90;;;;;;4992403;28;20043;-80
2021/12/25 00:27:09;;;;;;;0.57;0.57;;;-1.20;99.90;;;;;;4993090;28;20390;-79
2021/12/25 00:34:36;;;;;;;0.30;0.30;;;-1.30;99.90;;;;;;4993492;28;20057;-81
2021/12/25 00:37:04;;;;;;;0.50;0.50;;;-1.40;99.90;;;;;;4993295;28;20081;-80
2021/12/25 00:39:30;;;;;;;0.30;0.30;;;-1.40;99.90;;;;;;4975534;28;20137;-79
2021/12/25 00:42:00;;;;;;;0.22;0.22;;;-1.40;99.90;;;;;;4976499;28;20046;-79
2021/12/25 00:44:26;;;;;;;0.30;0.30;;;-1.40;99.90;;;;;;4992906;28;20047;-80
2021/12/25 00:46:52;;;;;;;0.30;0.30;;;-1.50;99.90;;;;;;4993063;28;20051;-81
2021/12/25 00:49:18;;;;;;;0.43;0.43;;;-1.50;99.90;;;;;;4993423;28;20042;-79
2021/12/25 00:51:44;;;;;;;0.20;0.20;;;-1.50;99.90;;;;;;4975808;28;20377;-83
2021/12/25 00:54:10;;;;;;;0.35;0.35;;;-1.50;99.90;;;;;;4975573;28;20042;-81
2021/12/25 00:56:36;;;;;;;0.30;0.30;;;-1.60;99.90;;;;;;4975439;28;20038;-80
2021/12/25 00:59:02;;;;;;;0.30;0.30;;;-1.60;99.90;;;;;;4993380;28;20399;-81
2021/12/25 01:01:28;;;;;;;0.30;0.30;;;-1.60;99.90;;;;;;4975666;28;20042;-79
2021/12/25 01:03:54;;;;;;;0.30;0.30;;;-1.60;99.90;;;;;;4993106;28;20121;-80
2021/12/25 01:06:19;;;;;;;0.30;0.30;;;-1.60;99.90;;;;;;4975021;28;20509;-79
2021/12/25 01:08:46;;;;;;;2.33;2.30;;;-1.60;99.90;;;;;;4992897;28;20050;-79
2021/12/25 01:11:12;;;;;;;0.30;0.30;;;-1.70;99.90;;;;;;4992808;28;20048;-79
2021/12/25 01:13:44;;;;;;;0.20;0.20;;;-1.70;99.90;;;;;;4993440;28;20043;-80
2021/12/25 01:27:03;;;;;;;0.40;0.40;;;-1.90;99.90;;;;;;4938334;29;20050;-80
2021/12/25 01:29:48;;;;;;;2.92;1.13;;;-1.90;99.90;;;;;;4939630;29;20043;-80
2021/12/25 01:32:50;;;;;;;0.40;0.40;;;-1.90;99.90;;;;;;4939211;29;20071;-79
2021/12/25 01:48:38;;;;;;;0.30;0.30;;;-2.10;99.90;;;;;;4954750;29;20087;-80
2021/12/25 01:51:04;;;;;;;4.13;3.83;;;-2.10;99.90;;;;;;4954878;29;20050;-79
2021/12/25 01:53:30;;;;;;;0.25;0.25;;;-2.20;99.90;;;;;;4939093;29;20122;-80
2021/12/25 01:55:58;;;;;;;0.20;0.20;;;-2.20;99.90;;;;;;4938727;29;20043;-80
2021/12/25 01:58:23;;;;;;;0.30;0.30;;;-2.20;99.90;;;;;;4979104;28;20108;-79
2021/12/25 02:00:53;;;;;;;0.30;0.30;;;-2.20;99.90;;;;;;5015120;28;20442;-79
2021/12/25 02:03:21;;;;;;;0.40;0.40;;;-2.20;99.90;;;;;;5015294;28;20050;-80
2021/12/25 02:05:47;;;;;;;1.05;1.05;;;-2.30;99.90;;;;;;5015188;28;20041;-80
2021/12/25 02:08:13;;;;;;;0.40;0.40;;;-2.30;99.90;;;;;;5015240;28;20046;-80
2021/12/25 02:10:39;;;;;;;0.30;0.30;;;-2.30;99.90;;;;;;4997583;28;20049;-80
2021/12/25 02:13:05;;;;;;;0.40;0.40;;;-2.40;99.90;;;;;;4997450;28;20164;-80
2021/12/25 02:15:32;;;;;;;0.30;0.30;;;-2.40;99.90;;;;;;5015146;28;20077;-80
2021/12/25 02:20:32;;;;;;;0.40;0.40;;;-2.40;99.90;;;;;;5015033;28;20052;-78
2021/12/25 02:23:04;;;;;;;0.40;0.40;;;-2.20;99.90;;;;;;5014918;28;20042;-79
2021/12/25 02:25:35;;;;;;;2.05;2.05;;;-2.40;99.90;;;;;;5014944;28;20045;-80
2021/12/25 02:28:03;;;;;;;0.30;0.30;;;-2.40;99.90;;;;;;5013701;28;20046;-80
2021/12/25 02:30:29;;;;;;;0.85;0.85;;;-2.50;99.90;;;;;;4996727;28;20045;-79
2021/12/25 02:32:58;;;;;;;0.20;0.20;;;-2.50;99.90;;;;;;5030129;28;20049;-80
2021/12/25 02:35:24;;;;;;;0.40;0.40;;;-2.50;99.90;;;;;;5014491;28;20384;-79
2021/12/25 02:37:50;;;;;;;0.30;0.30;;;-2.50;99.90;;;;;;5014570;28;20038;-80
2021/12/25 02:40:15;;;;;;;0.30;0.30;;;-2.60;99.90;;;;;;5014970;28;20042;-80
2021/12/25 02:42:42;;;;;;;0.50;0.50;;;-2.50;99.90;;;;;;5014165;28;20392;-80
2021/12/25 02:45:15;;;;;;;0.30;0.30;;;-2.50;99.90;;;;;;4997023;28;20046;-79
2021/12/25 02:47:46;;;;;;;0.98;0.98;;;-2.60;99.90;;;;;;5029485;28;20050;-79
2021/12/25 02:50:11;;;;;;;0.30;0.30;;;-2.60;99.90;;;;;;5029658;28;20116;-79
2021/12/25 02:52:38;;;;;;;0.30;0.30;;;-2.60;99.90;;;;;;5014101;28;20049;-79
2021/12/25 02:55:06;;;;;;;0.63;0.63;;;-2.70;99.90;;;;;;5012762;28;20038;-79
2021/12/25 02:57:32;;;;;;;0.30;0.30;;;-2.70;99.90;;;;;;4996255;28;20046;-79
2021/12/25 02:59:58;;;;;;;0.30;0.30;;;-2.70;99.90;;;;;;4996348;28;20120;-79
2021/12/25 03:02:24;;;;;;;0.52;0.52;;;-2.70;99.90;;;;;;5012927;28;20046;-80
2021/12/25 03:04:50;;;;;;;0.30;0.30;;;-2.70;99.90;;;;;;5014115;28;20116;-80
2021/12/25 03:07:17;;;;;;;0.30;0.30;;;-2.70;99.90;;;;;;5012551;28;20192;-79
2021/12/25 03:09:43;;;;;;;0.25;0.25;;;-2.70;99.90;;;;;;5014044;28;20053;-79
2021/12/25 03:12:13;;;;;;;0.30;0.30;;;-2.80;99.90;;;;;;5014135;28;20057;-79
2021/12/25 03:15:03;;;;;;;0.30;0.30;;;-2.80;99.90;;;;;;4996415;28;20060;-79
2021/12/25 03:17:30;;;;;;;0.40;0.40;;;-2.90;99.90;;;;;;5012585;28;20088;-79
2021/12/25 03:19:56;;;;;;;0.30;0.30;;;-2.90;99.90;;;;;;5029003;28;20053;-79
2021/12/25 03:22:23;;;;;;;0.40;0.40;;;-2.90;99.90;;;;;;5028791;28;20060;-78
2021/12/25 03:24:49;;;;;;;1.55;1.10;;;-2.90;99.90;;;;;;5013703;28;20050;-79
2021/12/25 03:27:14;;;;;;;0.30;0.30;;;-2.90;99.90;;;;;;5028974;28;20129;-79
2021/12/25 03:29:42;;;;;;;0.25;0.25;;;-3.00;99.90;;;;;;5013952;28;20573;-80
2021/12/25 03:32:09;;;;;;;0.38;0.38;;;-3.00;99.90;;;;;;4995757;28;20052;-79
2021/12/25 03:34:34;;;;;;;0.30;0.30;;;-3.00;99.90;;;;;;5013509;28;20045;-79
2021/12/25 03:37:01;;;;;;;0.30;0.30;;;-3.00;99.90;;;;;;5013350;28;20050;-79
2021/12/25 03:39:28;;;;;;;0.30;0.30;;;-3.00;99.90;;;;;;5011697;28;20129;-79
2021/12/25 03:41:56;;;;;;;0.30;0.30;;;-3.10;99.90;;;;;;5012517;28;20550;-79
2021/12/25 03:44:23;;;;;;;0.30;0.30;;;-3.10;99.90;;;;;;5013537;28;20046;-79
2021/12/25 03:46:48;;;;;;;0.30;0.30;;;-3.10;99.90;;;;;;5028519;28;20104;-80
2021/12/25 03:49:26;;;;;;;0.30;0.30;;;-3.10;99.90;;;;;;5013466;28;20414;-79
2021/12/25 03:57:56;;;;;;;0.30;0.30;;;-3.20;99.90;;;;;;4843268;29;20064;-79
2021/12/25 04:00:29;;;;;;;0.30;0.30;;;-3.20;99.90;;;;;;4843618;29;20407;-79
2021/12/25 04:02:59;;;;;;;0.30;0.30;;;-3.20;99.90;;;;;;4858640;29;20527;-79
2021/12/25 04:05:29;;;;;;;0.20;0.20;;;-3.30;99.90;;;;;;4858852;29;20140;-78
2021/12/25 04:08:01;;;;;;;0.25;0.25;;;-3.30;99.90;;;;;;4842993;29;20049;-79
2021/12/25 04:10:29;;;;;;;0.28;0.28;;;-3.30;99.90;;;;;;4842978;29;20069;-79
2021/12/25 04:12:57;;;;;;;0.30;0.30;;;-3.30;99.90;;;;;;4858463;29;20049;-78
2021/12/25 04:15:23;;;;;;;0.30;0.30;;;-3.30;99.90;;;;;;4858376;29;20065;-79
2021/12/25 04:17:48;;;;;;;0.20;0.20;;;-3.30;99.90;;;;;;4858409;29;20065;-79
2021/12/25 04:20:14;;;;;;;0.35;0.35;;;-3.30;99.90;;;;;;4843062;29;20049;-79
2021/12/25 04:23:05;;;;;;;0.30;0.30;;;-3.40;99.90;;;;;;4858595;29;20072;-79
2021/12/25 04:25:29;;;;;;;0.30;0.30;;;-3.40;99.90;;;;;;4858011;29;20101;-80
2021/12/25 04:28:00;;;;;;;1.05;1.05;;;-3.40;99.90;;;;;;4870812;29;20075;-79
2021/12/25 04:42:34;;;;;;;3.67;2.35;;;-3.50;99.90;;;;;;5013119;28;20406;-79
2021/12/25 05:03:35;;;;;;;0.32;0.32;;;-3.60;99.90;;;;;;5016634;28;20045;-80
2021/12/25 05:06:00;;;;;;;0.30;0.30;;;-3.60;99.90;;;;;;5016176;28;20046;-79
2021/12/25 05:08:26;;;;;;;0.30;0.30;;;-3.70;99.90;;;;;;5015092;28;20601;-78
2021/12/25 05:10:54;;;;;;;0.40;0.40;;;-3.70;99.90;;;;;;5015048;28;20077;-79
2021/12/25 05:13:20;;;;;;;0.30;0.30;;;-3.70;99.90;;;;;;5016187;28;20551;-78
2021/12/25 05:15:47;;;;;;;0.38;0.38;;;-3.70;99.90;;;;;;5016478;28;20038;-79
2021/12/25 05:18:13;;;;;;;0.30;0.30;;;-3.70;99.90;;;;;;4998566;28;20085;-79
2021/12/25 05:20:38;;;;;;;0.30;0.30;;;-3.70;99.90;;;;;;5015440;28;20506;-79
2021/12/25 05:23:04;;;;;;;0.30;0.30;;;-3.70;99.90;;;;;;5014892;28;20056;-79
2021/12/25 05:25:31;;;;;;;0.20;0.20;;;-3.70;99.90;;;;;;4998693;28;20403;-79
2021/12/25 05:27:59;;;;;;;0.30;0.30;;;-3.80;99.90;;;;;;5014942;28;20077;-80
2021/12/25 05:30:25;;;;;;;0.20;0.20;;;-3.80;99.90;;;;;;5016223;28;20056;-79
2021/12/25 05:32:51;;;;;;;0.30;0.30;;;-3.80;99.90;;;;;;5015892;28;20054;-78
2021/12/25 05:35:17;;;;;;;0.30;0.30;;;-3.80;99.90;;;;;;5015742;28;20124;-79
2021/12/25 05:37:43;;;;;;;0.20;0.20;;;-3.80;99.90;;;;;;5015749;28;20045;-79
2021/12/25 05:40:11;;;;;;;0.30;0.30;;;-3.80;99.90;;;;;;5016137;28;20108;-78
2021/12/25 05:42:37;;;;;;;0.32;0.32;;;-3.80;99.90;;;;;;5016089;28;20124;-79
2021/12/25 05:45:04;;;;;;;0.20;0.20;;;-3.80;99.90;;;;;;5015922;28;20125;-79
2021/12/25 05:47:29;;;;;;;0.30;0.30;;;-3.80;99.90;;;;;;5014889;28;20387;-78
2021/12/25 05:49:55;;;;;;;0.63;0.63;;;-3.80;99.90;;;;;;5014666;28;20042;-79
2021/12/25 05:52:21;;;;;;;0.30;0.30;;;-3.80;99.90;;;;;;4998204;28;20081;-78
2021/12/25 05:54:46;;;;;;;0.30;0.30;;;-3.80;99.90;;;;;;5015494;28;20045;-79
2021/12/25 05:57:12;;;;;;;0.30;0.30;;;-3.80;99.90;;;;;;5015472;28;20038;-79
2021/12/25 05:59:38;;;;;;;0.40;0.40;;;-3.60;99.90;;;;;;4997757;28;20053;-79
2021/12/25 06:02:03;;;;;;;0.32;0.32;;;-3.90;99.90;;;;;;5015536;28;20100;-79
2021/12/25 06:04:29;;;;;;;0.70;0.55;;;-3.90;99.90;;;;;;5013312;28;20042;-79
2021/12/25 06:06:55;;;;;;;0.30;0.30;;;-4.00;99.90;;;;;;5015320;28;20534;-79
2021/12/25 06:09:20;;;;;;;0.38;0.38;;;-3.90;99.90;;;;;;4997700;28;20466;-79
2021/12/25 06:11:46;;;;;;;1.08;0.57;;;-4.00;99.90;;;;;;4997566;28;20081;-78
2021/12/25 06:14:20;;;;;;;0.30;0.30;;;-4.00;99.90;;;;;;5015048;28;20045;-78
2021/12/25 06:16:48;;;;;;;0.40;0.40;;;-4.00;99.90;;;;;;4997445;28;20491;-79
2021/12/25 06:19:14;;;;;;;0.30;0.30;;;-4.10;99.90;;;;;;5015173;28;20042;-79
2021/12/25 06:21:40;;;;;;;0.30;0.30;;;-4.10;99.90;;;;;;5030385;28;20034;-78
2021/12/25 06:24:06;;;;;;;0.30;0.30;;;-4.10;99.90;;;;;;5013894;28;20053;-78
2021/12/25 06:26:33;;;;;;;0.40;0.40;;;-4.10;99.90;;;;;;5013789;28;20407;-79
2021/12/25 06:28:59;;;;;;;0.30;0.30;;;-4.10;99.90;;;;;;5015177;28;20463;-78
2021/12/25 06:31:25;;;;;;;0.30;0.30;;;-4.20;99.90;;;;;;5014914;28;20121;-79
2021/12/25 06:33:51;;;;;;;0.40;0.40;;;-4.20;99.90;;;;;;4997379;28;20042;-78
2021/12/25 06:36:17;;;;;;;0.30;0.30;;;-4.20;99.90;;;;;;5014817;28;20085;-79
2021/12/25 06:38:44;;;;;;;0.30;0.30;;;-4.20;99.90;;;;;;5014802;28;20042;-79
2021/12/25 06:41:12;;;;;;;0.30;0.30;;;-4.20;99.90;;;;;;5014896;28;20125;-79
2021/12/25 06:43:38;;;;;;;0.38;0.38;;;-4.20;99.90;;;;;;5014816;28;20045;-79
2021/12/25 06:46:04;;;;;;;0.35;0.35;;;-4.30;99.90;;;;;;5013822;28;20053;-79
2021/12/25 06:48:30;;;;;;;0.30;0.30;;;-4.30;99.90;;;;;;5014623;28;20560;-79
2021/12/25 06:50:56;;;;;;;0.30;0.30;;;-4.30;99.90;;;;;;5014617;28;20056;-79
2021/12/25 06:53:21;;;;;;;0.30;0.30;;;-4.30;99.90;;;;;;5013398;28;20045;-79
2021/12/25 06:55:47;;;;;;;0.30;0.30;;;-4.30;99.90;;;;;;5014274;28;20081;-78
2021/12/25 06:58:13;;;;;;;12.57;6.22;;;-4.30;99.90;;;;;;5013162;28;20132;-79
2021/12/25 07:00:39;;;;;;;0.30;0.30;;;-4.30;99.90;;;;;;5014226;28;20544;-80
2021/12/25 07:03:05;;;;;;;0.32;0.32;;;-4.30;99.90;;;;;;5014444;28;20129;-79
2021/12/25 07:05:30;;;;;;;0.30;0.30;;;-4.30;99.90;;;;;;5014389;28;20060;-79
2021/12/25 07:07:56;;;;;;;0.95;0.95;;;-4.30;99.90;;;;;;5012753;28;20057;-79
2021/12/25 07:10:22;;;;;;;0.30;0.30;;;-4.30;99.90;;;;;;5014273;28;20046;-79
2021/12/25 07:12:50;;;;;;;0.30;0.30;;;-4.30;99.90;;;;;;5029203;28;20045;-79
2021/12/25 07:15:16;;;;;;;0.40;0.40;;;-4.30;99.90;;;;;;5013693;28;20050;-79
2021/12/25 07:17:42;;;;;;;0.47;0.47;;;-4.30;99.90;;;;;;4996228;28;20053;-79
2021/12/25 07:20:09;;;;;;;0.30;0.30;;;-4.30;99.90;;;;;;5013812;28;20541;-79
2021/12/25 07:22:35;;;;;;;0.30;0.30;;;-4.30;99.90;;;;;;5014026;28;20038;-79
2021/12/25 07:25:01;;;;;;;5.68;5.47;;;-4.30;99.90;;;;;;5012512;28;20580;-79
2021/12/25 07:27:26;;;;;;;0.40;0.40;;;-4.40;99.90;;;;;;5012312;28;20049;-79
2021/12/25 07:29:52;;;;;;;0.30;0.30;;;-4.40;99.90;;;;;;5012403;28;20034;-79
2021/12/25 07:32:18;;;;;;;0.68;0.68;;;-4.40;99.90;;;;;;4995903;28;20072;-79
2021/12/25 07:34:47;;;;;;;0.30;0.30;;;-4.40;99.90;;;;;;5012167;28;20406;-79
2021/12/25 07:37:14;;;;;;;0.40;0.40;;;-4.40;99.90;;;;;;5013943;28;20089;-80
2021/12/25 07:39:41;;;;;;;0.30;0.30;;;-4.50;99.90;;;;;;5013735;28;20042;-79
2021/12/25 07:42:08;;;;;;;0.40;0.40;;;-4.50;99.90;;;;;;5012275;28;20046;-79
2021/12/25 07:44:33;;;;;;;0.30;0.30;;;-4.50;99.90;;;;;;5013680;28;20037;-79
2021/12/25 07:46:59;;;;;;;0.60;0.60;;;-4.50;99.90;;;;;;5013147;28;20124;-80
2021/12/25 07:49:27;;;;;;;0.30;0.30;;;-4.50;99.90;;;;;;5028056;28;20085;-79
2021/12/25 07:51:52;;;;;;;4.68;0.95;;;-4.50;99.90;;;;;;5028711;28;20417;-80
2021/12/25 07:54:18;;;;;;;0.40;0.40;;;-4.50;99.90;;;;;;5012533;28;20125;-80
2021/12/25 07:56:44;;;;;;;0.30;0.30;;;-4.50;99.90;;;;;;5013479;28;20513;-80
2021/12/25 07:59:10;;;;;;;0.40;0.40;;;-4.50;99.90;;;;;;5013525;28;20446;-80
2021/12/25 08:01:36;;;;;;;0.30;0.30;;;-4.50;99.90;;;;;;5013504;28;20042;-80
2021/12/25 08:04:03;;;;;;;0.30;0.30;;;-4.50;99.90;;;;;;5013409;28;20046;-79
2021/12/25 08:06:30;;;;;;;0.30;0.30;;;-4.50;99.90;;;;;;5013089;28;20068;-79
2021/12/25 08:09:01;;;;;;;0.20;0.20;;;-4.50;99.90;;;;;;5013422;28;20045;-79
2021/12/25 08:11:28;;;;;;;0.30;0.30;;;-4.50;99.90;;;;;;5013117;28;20042;-81
2021/12/25 08:13:54;;;;;;;0.30;0.30;;;-4.60;99.90;;;;;;5011825;28;20046;-79
2021/12/25 08:16:19;;;;;;;0.80;0.80;;;-4.60;99.90;;;;;;5013113;28;20123;-79
2021/12/25 08:18:45;;;;;;;0.40;0.40;;;-4.60;99.90;;;;;;5012800;28;20073;-79
2021/12/25 08:21:11;;;;;;;0.32;0.32;;;-4.60;99.90;;;;;;5013071;28;20049;-79
2021/12/25 08:23:37;;;;;;;2.08;1.98;;;-4.50;99.90;;;;;;5012922;28;20050;-80
2021/12/25 08:26:04;;;;;;;0.30;0.30;;;-4.50;99.90;;;;;;5014244;28;20044;-79
2021/12/25 08:28:30;;;;;;;0.30;0.30;;;-4.50;99.90;;;;;;5019623;28;20120;-78
2021/12/25 08:30:56;;;;;;;0.40;0.40;;;-4.50;99.90;;;;;;5019639;28;20050;-79
2021/12/25 08:33:22;;;;;;;0.30;0.30;;;-4.50;99.90;;;;;;5019826;28;20045;-79
2021/12/25 08:35:48;;;;;;;0.35;0.35;;;-4.40;99.90;;;;;;5019654;28;20096;-79
2021/12/25 08:38:14;;;;;;;0.30;0.30;;;-4.40;99.90;;;;;;5019196;28;20053;-79
2021/12/25 08:40:41;;;;;;;0.40;0.40;;;-4.40;99.90;;;;;;5019678;28;20073;-79
2021/12/25 08:43:07;;;;;;;0.30;0.30;;;-4.40;99.90;;;;;;5001801;28;20088;-79
2021/12/25 08:45:48;;;;;;;0.30;0.30;;;-4.40;99.90;;;;;;5019513;28;20091;-79
2021/12/25 08:48:24;;;;;;;8.70;1.60;;;-4.30;99.90;;;;;;5019197;28;20528;-80
2021/12/25 08:50:54;;;;;;;0.32;0.32;;;-4.30;99.90;;;;;;5019438;28;20120;-79
2021/12/25 08:53:21;;;;;;;0.30;0.30;;;-4.20;99.90;;;;;;5001854;28;20061;-79
2021/12/25 08:55:48;;;;;;;0.40;0.40;;;-4.20;99.90;;;;;;5019068;28;20045;-80
2021/12/25 08:58:15;;;;;;;0.40;0.40;;;-4.20;99.90;;;;;;5019045;28;20556;-79
2021/12/25 09:00:42;;;;;;;0.30;0.30;;;-4.10;99.90;;;;;;5034635;28;20376;-77
2021/12/25 09:03:07;;;;;;;0.20;0.20;;;-4.10;99.90;;;;;;5019150;28;20046;-79
2021/12/25 09:05:34;;;;;;;0.30;0.30;;;-4.10;99.90;;;;;;5019319;28;20041;-79
2021/12/25 09:08:00;;;;;;;28.58;2.15;;;-4.10;99.90;;;;;;5018882;28;20049;-78
2021/12/25 09:10:30;;;;;;;0.32;0.32;;;-4.00;99.90;;;;;;5017649;28;20050;-79
2021/12/25 09:12:56;;;;;;;0.40;0.40;;;-4.00;99.90;;;;;;5001655;28;20050;-79
2021/12/25 09:15:23;;;;;;;0.30;0.30;;;-4.00;99.90;;;;;;5018973;28;20084;-79
2021/12/25 09:17:48;;;;;;;0.30;0.30;;;-3.90;99.90;;;;;;5019164;28;20042;-79
2021/12/25 09:20:20;;;;;;;0.38;0.38;;;-3.90;99.90;;;;;;5017957;28;20049;-80
2021/12/25 09:22:46;;;;;;;0.40;0.40;;;-3.90;99.90;;;;;;5034303;28;20057;-77
2021/12/25 09:25:12;;;;;;;0.30;0.30;;;-3.80;99.90;;;;;;5034447;28;20304;-78
2021/12/25 09:27:37;;;;;;;0.30;0.30;;;-3.80;99.90;;;;;;5017685;28;20391;-78
2021/12/25 09:30:04;;;;;;;0.75;0.75;;;-3.80;99.90;;;;;;5018875;28;20044;-78
2021/12/25 09:32:30;;;;;;;0.40;0.40;;;-3.80;99.90;;;;;;5018660;28;20128;-78
2021/12/25 09:35:00;;;;;;;0.30;0.30;;;-3.80;99.90;;;;;;5017588;28;20137;-78
2021/12/25 09:37:29;;;;;;;0.63;0.63;;;-3.80;99.90;;;;;;5033559;28;20499;-78
2021/12/25 09:39:55;;;;;;;0.40;0.40;;;-3.70;99.90;;;;;;5015988;28;20057;-78
2021/12/25 09:42:24;;;;;;;0.30;0.30;;;-3.70;99.90;;;;;;5015156;28;20391;-79
2021/12/25 09:44:50;;;;;;;0.35;0.35;;;-3.70;99.90;;;;;;4997993;28;20049;-79
2021/12/25 09:47:16;;;;;;;0.40;0.40;;;-3.70;99.90;;;;;;5015393;28;20487;-78
2021/12/25 09:49:41;;;;;;;0.80;0.80;;;-3.60;99.90;;;;;;5015345;28;20053;-77
2021/12/25 09:52:07;;;;;;;0.55;0.55;;;-3.60;99.90;;;;;;4998354;28;20057;-79
2021/12/25 09:54:33;;;;;;;0.30;0.30;;;-3.60;99.90;;;;;;5015636;28;20125;-79
2021/12/25 09:56:58;;;;;;;0.30;0.30;;;-3.50;99.90;;;;;;5015603;28;20042;-78
2021/12/25 09:59:25;;;;;;;0.80;0.80;;;-3.50;99.90;;;;;;4997773;28;20506;-79
2021/12/25 10:01:53;;;;;;;0.40;0.40;;;-3.50;99.90;;;;;;5015242;28;20438;-79
2021/12/25 10:04:54;;;;;;;0.30;0.30;;;-3.50;99.90;;;;;;5030469;28;20053;-79
2021/12/25 10:07:28;;;;;;;0.30;0.30;;;-3.50;99.90;;;;;;4938476;29;20595;-79
2021/12/25 10:09:57;;;;;;;0.50;0.50;;;-3.40;99.90;;;;;;4938683;29;20059;-79
2021/12/25 10:12:31;;;;;;;0.30;0.30;;;-3.40;99.90;;;;;;4954689;29;20050;-79
2021/12/25 10:14:57;;;;;;;0.28;0.28;;;-3.40;99.90;;;;;;4954687;29;20039;-79
2021/12/25 10:17:26;;;;;;;0.68;0.68;;;-3.40;99.90;;;;;;4954458;29;20535;-78
2021/12/25 10:20:11;;;;;;;0.40;0.40;;;-3.30;99.90;;;;;;4938355;29;20059;-79
2021/12/25 10:22:52;;;;;;;0.28;0.28;;;-3.30;99.90;;;;;;4938756;28;20046;-79
2021/12/25 10:25:18;;;;;;;0.30;0.30;;;-3.30;99.90;;;;;;4938289;29;20059;-78
2021/12/25 10:27:50;;;;;;;0.30;0.30;;;-3.20;99.90;;;;;;4954516;29;20043;-78
2021/12/25 10:30:16;;;;;;;0.50;0.50;;;-3.20;99.90;;;;;;4938302;29;20059;-79
2021/12/25 10:32:42;;;;;;;0.30;0.30;;;-3.20;99.90;;;;;;4938198;29;20062;-79
2021/12/25 10:35:17;;;;;;;0.30;0.30;;;-3.20;99.90;;;;;;4954350;29;20051;-79
2021/12/25 10:37:43;;;;;;;0.30;0.30;;;-3.20;99.90;;;;;;4938309;29;20070;-79
2021/12/25 10:40:32;;;;;;;0.30;0.30;;;-3.10;99.90;;;;;;4954313;29;20079;-79
2021/12/25 10:43:00;;;;;;;0.30;0.30;;;-3.10;99.90;;;;;;4986983;28;20388;-79
2021/12/25 10:45:28;;;;;;;0.30;0.30;;;-3.10;99.90;;;;;;5014360;28;20457;-79
2021/12/25 10:48:03;;;;;;;0.30;0.30;;;-3.10;99.90;;;;;;5013078;28;20614;-79
2021/12/25 10:50:35;;;;;;;0.40;0.40;;;-3.10;99.90;;;;;;4996241;28;20042;-79
2021/12/25 10:53:05;;;;;;;0.30;0.30;;;-3.00;99.90;;;;;;5014499;28;20045;-80
2021/12/25 10:55:31;;;;;;;0.60;0.60;;;-3.00;99.90;;;;;;5014239;28;20121;-79
2021/12/25 10:57:58;;;;;;;0.30;0.30;;;-3.00;99.90;;;;;;5014121;28;20125;-80
2021/12/25 11:00:24;;;;;;;0.20;0.20;;;-2.90;99.90;;;;;;4996950;28;20046;-79
2021/12/25 11:02:59;;;;;;;0.20;0.20;;;-3.00;99.90;;;;;;5014442;28;20482;-80
2021/12/25 11:05:33;;;;;;;0.30;0.30;;;-2.90;99.90;;;;;;5012850;28;20050;-79
2021/12/25 11:08:19;;;;;;;0.40;0.40;;;-2.90;99.90;;;;;;5013873;28;20076;-81
2021/12/25 11:10:58;;;;;;;0.35;0.35;;;-2.90;99.90;;;;;;4996449;28;20050;-81
2021/12/25 11:13:33;;;;;;;0.68;0.68;;;-2.90;99.90;;;;;;5013834;28;20129;-80
2021/12/25 11:16:04;;;;;;;0.30;0.30;;;-2.80;99.90;;;;;;5014146;28;20060;-79
2021/12/25 11:18:31;;;;;;;;;;;-2.80;99.90;;;;;;5014431;28;20044;-80
2021/12/25 11:20:59;;;;;;;38.65;2.83;;;-2.70;99.90;;;;;;5029396;28;20278;-79
2021/12/25 11:23:27;;;;;;;0.35;0.35;;;-2.70;99.90;;;;;;4996136;28;20050;-80
2021/12/25 11:25:52;;;;;;;0.30;0.30;;;-2.70;99.90;;;;;;4996196;28;20450;-80
2021/12/25 11:28:18;;;;;;;0.30;0.30;;;-2.70;99.90;;;;;;5013933;28;20046;-79
2021/12/25 11:30:50;;;;;;;1.10;1.10;;;-2.70;99.90;;;;;;5012335;28;20132;-81
2021/12/25 11:33:15;;;;;;;0.30;0.30;;;-2.70;99.90;;;;;;5013969;28;20045;-80
2021/12/25 11:35:41;;;;;;;0.30;0.30;;;-2.70;99.90;;;;;;4996281;28;20072;-77
2021/12/25 11:38:09;;;;;;;0.45;0.45;;;-2.70;99.90;;;;;;5013769;28;20398;-80
2021/12/25 11:40:40;;;;;;;0.30;0.30;;;-2.70;99.90;;;;;;5013749;28;20042;-79
2021/12/25 11:43:06;;;;;;;0.30;0.30;;;-2.70;99.90;;;;;;5013721;28;20046;-78
2021/12/25 11:45:36;;;;;;;0.30;0.30;;;-2.60;99.90;;;;;;5014058;28;20509;-79
2021/12/25 11:48:20;;;;;;;4.65;1.50;;;-2.70;99.90;;;;;;5013223;28;20052;-79
2021/12/25 11:50:49;;;;;;;26.05;3.70;;;-2.70;99.90;;;;;;5013207;28;20564;-79
2021/12/25 11:53:23;;;;;;;0.30;0.30;;;-2.60;99.90;;;;;;4996324;28;20132;-79
2021/12/25 11:58:49;;;;;;;0.32;0.32;;;-2.60;99.90;;;;;;5013586;28;20090;-79
2021/12/25 12:01:32;;;;;;;0.30;0.30;;;-2.60;99.90;;;;;;5027612;28;20483;-80
2021/12/25 12:04:11;;;;;;;0.40;0.40;;;-2.60;99.90;;;;;;5029356;28;20050;-80
2021/12/25 12:06:46;;;;;;;0.30;0.30;;;-2.60;99.90;;;;;;5009064;28;20057;-79
2021/12/25 12:09:12;;;;;;;0.30;0.30;;;-2.50;99.90;;;;;;5013004;28;20054;-78
2021/12/25 12:11:42;;;;;;;0.30;0.30;;;-2.50;99.90;;;;;;5013507;28;20493;-79
2021/12/25 12:14:20;;;;;;;0.35;0.35;;;-2.60;99.90;;;;;;5013321;28;20513;-79
2021/12/25 12:16:51;;;;;;;0.40;0.40;;;-2.50;99.90;;;;;;5028393;28;20497;-79
2021/12/25 12:19:36;;;;;;;0.57;0.57;;;-2.60;99.90;;;;;;5013125;28;20127;-78
2021/12/25 12:25:22;;;;;;;0.30;0.30;;;-2.50;99.90;;;;;;4971776;28;20098;-79
2021/12/25 12:27:57;;;;;;;;;;;-2.50;99.90;;;;;;4956103;28;20057;-79
2021/12/25 12:30:32;;;;;;;0.30;0.30;;;-2.50;99.90;;;;;;4955604;28;20390;-79
2021/12/25 12:33:20;;;;;;;2.35;2.25;;;-2.50;99.90;;;;;;4955869;28;20109;-78
2021/12/25 12:35:53;;;;;;;29.60;2.38;;;-2.50;99.90;;;;;;4917552;29;20246;-79
2021/12/25 12:38:39;;;;;;;0.32;0.32;;;-2.50;99.90;;;;;;4917444;29;20047;-79
2021/12/25 12:41:14;;;;;;;0.32;0.32;;;-2.40;99.90;;;;;;4933520;29;20428;-80
2021/12/25 12:44:03;;;;;;;0.40;0.40;;;-2.40;99.90;;;;;;4917827;29;20099;-79
2021/12/25 12:46:50;;;;;;;0.30;0.30;;;-2.40;99.90;;;;;;4917332;29;20063;-79
2021/12/25 12:49:20;;;;;;;0.30;0.30;;;-2.40;99.90;;;;;;4933211;29;20066;-79
2021/12/25 12:52:08;;;;;;;0.38;0.38;;;-2.40;99.90;;;;;;4933276;29;20134;-79
2021/12/25 12:54:44;;;;;;;0.30;0.30;;;-2.40;99.90;;;;;;4917224;29;20114;-79
2021/12/25 12:57:36;;;;;;;0.30;0.30;;;-2.40;99.90;;;;;;4933326;29;20044;-79
2021/12/25 13:00:20;;;;;;;0.68;0.68;;;-2.40;99.90;;;;;;4916750;29;20096;-79
2021/12/25 13:02:49;;;;;;;0.30;0.30;;;-2.30;99.90;;;;;;4955634;28;20046;-78
2021/12/25 13:05:23;;;;;;;0.32;0.32;;;-2.40;99.90;;;;;;4955512;28;20112;-79
2021/12/25 13:07:52;;;;;;;0.30;0.30;;;-2.30;99.90;;;;;;4971523;28;20122;-79
2021/12/25 13:10:26;;;;;;;2.67;2.58;;;-2.30;99.90;;;;;;4955346;28;20071;-79
2021/12/25 13:13:06;;;;;;;1.95;1.58;;;-2.30;99.90;;;;;;4976595;28;20062;-79
2021/12/25 13:15:33;;;;;;;0.30;0.30;;;-2.30;99.90;;;;;;5031614;28;20107;-79
2021/12/25 13:18:02;;;;;;;0.30;0.30;;;-2.30;99.90;;;;;;5014900;28;20494;-79
2021/12/25 13:20:45;;;;;;;1.20;1.20;;;-2.30;99.90;;;;;;5031418;28;20053;-79
2021/12/25 13:23:20;;;;;;;0.22;0.22;;;-2.30;99.90;;;;;;5016183;28;20483;-78
2021/12/25 13:25:57;;;;;;;0.30;0.30;;;-2.30;99.90;;;;;;4998704;28;20061;-79
2021/12/25 13:28:24;;;;;;;0.20;0.20;;;-2.30;99.90;;;;;;5016316;28;20099;-80
2021/12/25 13:31:06;;;;;;;0.57;0.57;;;-2.30;99.90;;;;;;5015768;28;20041;-80
2021/12/25 13:33:42;;;;;;;0.30;0.30;;;-2.30;99.90;;;;;;5016141;28;20124;-79
2021/12/25 13:36:10;;;;;;;0.45;0.45;;;-2.30;99.90;;;;;;5016300;28;20042;-79
2021/12/25 13:39:13;;;;;;;0.20;0.20;;;-2.30;99.90;;;;;;5016102;28;20053;-80
2021/12/25 13:41:46;;;;;;;0.20;0.20;;;-2.30;99.90;;;;;;4955473;29;20083;-80
2021/12/25 13:44:27;;;;;;;0.40;0.40;;;-2.20;99.90;;;;;;4955349;29;20047;-79
2021/12/25 13:47:03;;;;;;;0.30;0.30;;;-2.30;99.90;;;;;;4955256;29;20512;-81
2021/12/25 13:49:41;;;;;;;0.43;0.43;;;-2.30;99.90;;;;;;4939209;29;20055;-81
2021/12/25 13:52:11;;;;;;;0.30;0.30;;;-2.30;99.90;;;;;;4955292;29;20496;-80
2021/12/25 13:54:41;;;;;;;0.30;0.30;;;-2.30;99.90;;;;;;4955118;29;20039;-80
2021/12/25 13:57:07;;;;;;;0.30;0.30;;;-2.30;99.90;;;;;;4939214;29;20055;-80
2021/12/25 13:59:33;;;;;;;20.42;1.48;;;-2.30;99.90;;;;;;4954895;29;20118;-80
2021/12/25 14:02:11;;;;;;;0.30;0.30;;;-2.30;99.90;;;;;;4938970;29;20043;-80
2021/12/25 14:04:41;;;;;;;0.30;0.30;;;-2.30;99.90;;;;;;4955054;29;20059;-81
2021/12/25 14:07:08;;;;;;;0.20;0.20;;;-2.30;99.90;;;;;;4954874;29;20070;-81
2021/12/25 14:09:34;;;;;;;1.20;1.20;;;-2.30;99.90;;;;;;4938912;29;20051;-81
2021/12/25 14:12:03;;;;;;;0.35;0.35;;;-2.30;99.90;;;;;;4938976;29;20082;-81
2021/12/25 14:14:31;;;;;;;0.30;0.30;;;-2.30;99.90;;;;;;4954804;29;20111;-81